Time;durP1;ratioP1;P1;durP2;ratioP2;P2;SDS_P1;SDS_P2;PMS_P1;PMS_P2;Temp;Humidity;BMP_temperature;BMP_pressure;BME280_temperature;BME280_humidity;BME280_pressure;Samples;Min_cycle;Max_cycle;Signal;HPM_P1;HPM_P2
2021/04/20 00:06:14;;;;;;;6.40;3.47;;;15.70;53.10;;;;;;20754271;28;20478;-49
2021/04/20 00:16:15;;;;;;;4.57;3.10;;;15.70;53.10;;;;;;20753381;28;20037;-48
2021/04/20 00:26:16;;;;;;;4.90;3.47;;;15.70;53.00;;;;;;20752174;28;20033;-48
2021/04/20 00:36:16;;;;;;;4.70;3.75;;;15.60;53.20;;;;;;20750993;28;20102;-48
2021/04/20 00:46:19;;;;;;;5.15;3.40;;;15.50;53.40;;;;;;20751591;28;20096;-48
2021/04/20 00:56:20;;;;;;;4.78;3.65;;;15.40;53.90;;;;;;20750387;28;20460;-49
2021/04/20 01:06:21;;;;;;;8.20;3.47;;;15.40;54.10;;;;;;20749740;28;20491;-48
2021/04/20 01:16:22;;;;;;;4.65;3.13;;;15.20;54.60;;;;;;20749324;28;20038;-47
2021/04/20 01:26:27;;;;;;;6.25;3.85;;;15.20;54.80;;;;;;20749359;28;20394;-49
2021/04/20 01:36:28;;;;;;;;;;;15.20;54.80;;;;;;20748362;28;20034;-48
2021/04/20 01:46:28;;;;;;;4.22;3.20;;;15.00;55.00;;;;;;20746222;28;19979;-49
2021/04/20 01:56:30;;;;;;;4.43;3.45;;;15.00;55.20;;;;;;20746620;28;20062;-48
2021/04/20 02:06:31;;;;;;;4.80;3.63;;;14.90;55.40;;;;;;20746830;28;20054;-50
2021/04/20 02:16:32;;;;;;;5.10;4.28;;;14.90;55.60;;;;;;20746357;28;20041;-49
2021/04/20 02:26:37;;;;;;;3.97;3.42;;;14.90;55.60;;;;;;20746264;28;20398;-49
2021/04/20 02:36:43;;;;;;;4.78;3.83;;;14.90;55.60;;;;;;20746062;28;20046;-49
2021/04/20 02:46:45;;;;;;;4.35;3.72;;;14.90;56.00;;;;;;20753288;28;20494;-49
2021/04/20 02:56:48;;;;;;;6.72;4.07;;;14.80;56.10;;;;;;20759461;28;20050;-50
2021/04/20 03:06:48;;;;;;;4.88;4.00;;;14.80;56.30;;;;;;20741054;28;20038;-48
2021/04/20 03:16:50;;;;;;;5.13;3.95;;;14.70;56.60;;;;;;20740078;28;20046;-49
2021/04/20 03:26:50;;;;;;;4.30;3.83;;;14.70;57.10;;;;;;20757324;28;20074;-49
2021/04/20 03:37:00;;;;;;;5.40;3.33;;;14.70;57.60;;;;;;20756570;28;20038;-49
2021/04/20 03:47:06;;;;;;;11.98;4.05;;;14.70;57.70;;;;;;20755545;28;20505;-48
2021/04/20 03:57:08;;;;;;;6.28;4.35;;;14.70;57.80;;;;;;20736500;28;20041;-48
2021/04/20 04:07:10;;;;;;;6.20;4.45;;;14.70;58.10;;;;;;20753817;28;20044;-48
2021/04/20 04:17:15;;;;;;;9.10;4.03;;;14.70;58.40;;;;;;20753210;28;20548;-49
2021/04/20 04:27:20;;;;;;;5.97;5.38;;;14.70;58.40;;;;;;20751289;28;20148;-48
2021/04/20 04:37:22;;;;;;;7.60;5.55;;;14.70;58.00;;;;;;20751641;28;20422;-48
2021/04/20 04:47:23;;;;;;;6.15;5.13;;;14.60;58.20;;;;;;20750754;28;20367;-48
2021/04/20 04:57:26;;;;;;;7.70;5.53;;;14.50;58.20;;;;;;20750817;28;20049;-47
2021/04/20 05:07:27;;;;;;;8.65;5.20;;;14.50;58.40;;;;;;20749596;28;20037;-48
2021/04/20 05:17:29;;;;;;;15.88;5.70;;;14.20;58.80;;;;;;20749288;28;20072;-48
2021/04/20 05:27:30;;;;;;;8.38;5.60;;;14.20;59.40;;;;;;20746969;28;20068;-47
2021/04/20 05:37:40;;;;;;;5.72;4.72;;;14.20;59.60;;;;;;20748365;28;20026;-49
2021/04/20 05:47:43;;;;;;;7.72;5.43;;;14.20;59.70;;;;;;20747932;28;20056;-49
2021/04/20 05:57:52;;;;;;;6.80;5.78;;;14.10;59.60;;;;;;20747157;28;20054;-49
2021/04/20 06:07:56;;;;;;;8.35;5.32;;;14.10;61.10;;;;;;20746754;28;20057;-48
2021/04/20 06:17:59;;;;;;;7.32;5.70;;;13.90;61.70;;;;;;20748206;28;20565;-48
2021/04/20 06:28:00;;;;;;;7.40;6.07;;;13.90;61.90;;;;;;20761451;28;20080;-49
2021/04/20 06:38:01;;;;;;;8.65;6.60;;;14.10;61.60;;;;;;20758979;28;20052;-48
2021/04/20 06:48:23;;;;;;;10.07;5.63;;;14.20;61.20;;;;;;20759117;28;20076;-48
2021/04/20 06:58:32;;;;;;;7.93;5.20;;;14.40;60.30;;;;;;20759211;28;20086;-49
2021/04/20 07:08:35;;;;;;;9.02;6.13;;;14.80;59.70;;;;;;20757257;28;20050;-49
2021/04/20 07:19:15;;;;;;;8.40;5.38;;;15.00;59.40;;;;;;20757211;28;20021;-50
2021/04/20 07:29:25;;;;;;;9.05;5.72;;;15.10;59.00;;;;;;20757377;28;20037;-49
2021/04/20 07:39:35;;;;;;;9.38;5.80;;;15.20;59.00;;;;;;20756814;28;20033;-48
2021/04/20 07:50:14;;;;;;;7.78;6.38;;;15.20;58.70;;;;;;20755950;28;20088;-49
2021/04/20 08:00:18;;;;;;;13.50;7.85;;;15.50;57.70;;;;;;20754142;28;20125;-48
2021/04/20 08:10:20;;;;;;;22.77;12.60;;;15.80;57.00;;;;;;20752271;28;20045;-48
2021/04/20 08:20:24;;;;;;;14.88;11.90;;;16.00;57.90;;;;;;20753114;28;20018;-49
2021/04/20 08:30:36;;;;;;;16.90;12.05;;;16.20;57.60;;;;;;20752086;28;20042;-48
2021/04/20 08:40:59;;;;;;;19.92;8.32;;;16.60;56.60;;;;;;20748043;28;20524;-49
2021/04/20 08:51:21;;;;;;;18.10;10.95;;;17.40;51.70;;;;;;20747144;28;20096;-48
2021/04/20 09:01:54;;;;;;;17.10;11.82;;;18.00;51.20;;;;;;20747311;28;20045;-48
2021/04/20 09:12:00;;;;;;;15.77;9.90;;;18.70;50.10;;;;;;20666495;28;20089;-47
2021/04/20 09:22:09;;;;;;;16.40;9.07;;;19.10;49.60;;;;;;20665927;28;20054;-49
2021/04/20 09:32:21;;;;;;;10.02;8.15;;;19.20;48.80;;;;;;20666531;28;20034;-47
2021/04/20 09:42:25;;;;;;;18.67;7.95;;;19.40;48.40;;;;;;20702977;28;20013;-49
2021/04/20 09:52:29;;;;;;;;;;;19.30;48.20;;;;;;20728397;28;20052;-49
2021/04/20 10:02:57;;;;;;;11.57;7.17;;;19.10;48.30;;;;;;20755879;28;20444;-48
2021/04/20 10:13:19;;;;;;;7.97;5.90;;;19.30;46.40;;;;;;20761009;28;20057;-49
2021/04/20 10:23:34;;;;;;;9.00;7.03;;;19.60;46.00;;;;;;20761736;28;20112;-48
2021/04/20 10:33:36;;;;;;;9.73;6.75;;;19.80;45.60;;;;;;20760785;28;20041;-48
2021/04/20 10:43:37;;;;;;;11.30;7.28;;;19.70;46.10;;;;;;20760813;28;20425;-51
2021/04/20 10:53:40;;;;;;;17.05;8.23;;;19.70;46.00;;;;;;20760309;28;20038;-47
2021/04/20 11:03:42;;;;;;;11.40;7.50;;;19.40;47.80;;;;;;20754241;28;20502;-46
2021/04/20 11:13:43;;;;;;;12.68;8.77;;;19.20;49.30;;;;;;20755302;28;20033;-50
2021/04/20 11:23:57;;;;;;;11.38;7.20;;;18.90;50.30;;;;;;20757018;28;20018;-49
2021/04/20 11:34:13;;;;;;;8.95;7.03;;;18.90;49.60;;;;;;20756728;28;20032;-50
2021/04/20 11:44:15;;;;;;;9.48;6.72;;;19.00;49.30;;;;;;20756160;28;20386;-52
2021/04/20 11:54:25;;;;;;;9.68;4.18;;;19.30;48.40;;;;;;20754122;28;20046;-49
2021/04/20 12:04:34;;;;;;;4.03;3.03;;;19.70;45.90;;;;;;20753159;28;20100;-52
2021/04/20 12:14:40;;;;;;;4.85;2.95;;;20.00;43.90;;;;;;20752105;28;20045;-51
2021/04/20 12:24:41;;;;;;;7.93;3.92;;;20.20;42.60;;;;;;20753033;28;20472;-50
2021/04/20 12:34:42;;;;;;;6.13;3.42;;;20.20;43.20;;;;;;20752706;28;20127;-51
2021/04/20 12:44:48;;;;;;;5.82;3.42;;;20.20;43.60;;;;;;20752196;28;20106;-51
2021/04/20 12:54:57;;;;;;;5.43;3.20;;;20.20;43.10;;;;;;20751596;28;20048;-51
2021/04/20 13:05:03;;;;;;;4.28;2.60;;;20.00;50.80;;;;;;20749961;28;20045;-51
2021/04/20 13:15:07;;;;;;;5.00;2.42;;;19.30;52.40;;;;;;20748280;28;20042;-50
2021/04/20 13:25:09;;;;;;;11.43;5.18;;;19.20;52.40;;;;;;20748752;28;20030;-50
2021/04/20 13:35:16;;;;;;;4.82;2.17;;;19.00;50.40;;;;;;20747845;28;20125;-50
2021/04/20 13:45:25;;;;;;;9.13;3.50;;;19.30;46.60;;;;;;20748230;28;20382;-50
2021/04/20 13:55:35;;;;;;;4.60;2.28;;;19.50;45.80;;;;;;20730459;28;20099;-52
2021/04/20 14:05:41;;;;;;;5.07;2.10;;;19.70;44.00;;;;;;20748245;28;20050;-51
2021/04/20 14:15:43;;;;;;;3.75;1.50;;;19.60;43.90;;;;;;20748114;28;20500;-50
2021/04/20 14:25:46;;;;;;;2.88;1.60;;;19.50;43.00;;;;;;20745976;28;20029;-51
2021/04/20 14:35:50;;;;;;;3.37;1.90;;;19.50;42.20;;;;;;20728014;28;20100;-50
2021/04/20 14:45:52;;;;;;;3.55;1.52;;;19.40;41.40;;;;;;20758506;28;20089;-51
2021/04/20 14:55:55;;;;;;;7.93;4.93;;;19.40;41.60;;;;;;20760131;28;20064;-50
2021/04/20 15:06:00;;;;;;;;;;;19.70;41.60;;;;;;20760127;28;20022;-52
2021/04/20 15:16:08;;;;;;;5.45;2.33;;;19.90;40.90;;;;;;20759216;28;19919;-51
2021/04/20 15:26:42;;;;;;;4.07;1.60;;;19.80;41.60;;;;;;20757422;28;20033;-50
2021/04/20 15:36:46;;;;;;;4.00;2.13;;;19.70;42.90;;;;;;20427115;29;20056;-50
2021/04/20 15:46:52;;;;;;;6.20;1.95;;;19.60;44.10;;;;;;20424652;29;20140;-48
2021/04/20 15:56:57;;;;;;;3.10;1.50;;;19.40;43.40;;;;;;20424811;28;20126;-51
2021/04/20 16:07:00;;;;;;;6.88;1.73;;;19.30;42.40;;;;;;20512834;28;20038;-49
2021/04/20 16:17:05;;;;;;;2.40;1.53;;;19.40;42.80;;;;;;20734042;28;20076;-46
2021/04/20 16:27:09;;;;;;;3.28;1.63;;;19.40;42.10;;;;;;20745528;28;20108;-47
2021/04/20 16:37:35;;;;;;;4.18;1.50;;;19.60;41.40;;;;;;20747365;28;20068;-46
2021/04/20 16:48:01;;;;;;;4.20;1.40;;;19.70;40.70;;;;;;20748607;28;20026;-48
2021/04/20 16:58:40;;;;;;;3.08;1.33;;;19.90;40.10;;;;;;20747381;28;20056;-48
2021/04/20 17:09:02;;;;;;;2.50;1.52;;;19.80;40.60;;;;;;20747900;28;20514;-47
2021/04/20 17:19:29;;;;;;;4.53;1.60;;;19.90;40.70;;;;;;20729919;28;20046;-50
2021/04/20 17:29:42;;;;;;;3.03;1.38;;;20.10;39.70;;;;;;20745308;28;20100;-47
2021/04/20 17:40:04;;;;;;;4.43;1.53;;;19.90;40.20;;;;;;20746245;28;20022;-47
2021/04/20 17:50:22;;;;;;;3.95;1.60;;;19.80;42.00;;;;;;20745503;28;20038;-48
2021/04/20 18:01:09;;;;;;;3.95;1.85;;;19.70;42.80;;;;;;20738885;28;20493;-50
2021/04/20 18:11:35;;;;;;;3.20;1.92;;;19.60;43.40;;;;;;20695655;28;20506;-48
2021/04/20 18:21:39;;;;;;;5.38;1.80;;;19.50;43.60;;;;;;20754241;28;20030;-48
2021/04/20 18:31:52;;;;;;;5.60;3.05;;;19.50;44.40;;;;;;20779948;28;20048;-47
2021/04/20 18:42:00;;;;;;;4.27;2.20;;;19.30;44.70;;;;;;20808352;28;20038;-47
2021/04/20 18:52:33;;;;;;;4.00;2.65;;;19.20;44.90;;;;;;20757805;28;20040;-48
2021/04/20 19:02:42;;;;;;;4.90;2.33;;;19.20;46.60;;;;;;20746645;28;20049;-49
2021/04/20 19:13:01;;;;;;;4.05;2.42;;;19.20;47.10;;;;;;20758546;28;20049;-50
2021/04/20 19:23:06;;;;;;;5.72;2.30;;;19.10;45.50;;;;;;20757885;28;20065;-50
2021/04/20 19:33:10;;;;;;;5.97;2.92;;;18.80;46.30;;;;;;20756618;28;20114;-50
2021/04/20 19:43:16;;;;;;;4.57;2.10;;;18.50;48.40;;;;;;20756108;28;20030;-48
2021/04/20 19:53:27;;;;;;;3.00;1.67;;;18.20;48.70;;;;;;20755471;28;20118;-50
2021/04/20 20:03:40;;;;;;;3.63;1.75;;;18.20;48.70;;;;;;20754892;28;20136;-50
2021/04/20 20:13:45;;;;;;;2.38;1.40;;;18.00;49.10;;;;;;20754117;28;20045;-49
2021/04/20 20:23:53;;;;;;;4.40;1.95;;;17.80;49.70;;;;;;20753327;28;20030;-49
2021/04/20 20:33:59;;;;;;;7.45;1.60;;;17.70;50.00;;;;;;20752172;28;20053;-49
2021/04/20 20:44:02;;;;;;;3.33;1.52;;;17.50;50.40;;;;;;20734164;28;20045;-51
2021/04/20 20:54:05;;;;;;;4.30;1.80;;;17.40;50.80;;;;;;20752388;28;20141;-51
2021/04/20 21:04:16;;;;;;;3.87;1.93;;;17.30;50.90;;;;;;20749815;28;20042;-50
2021/04/20 21:14:26;;;;;;;3.85;1.73;;;17.30;51.30;;;;;;20749382;28;20038;-49
2021/04/20 21:24:50;;;;;;;5.38;2.70;;;17.20;51.50;;;;;;20748194;28;20030;-50
2021/04/20 21:34:54;;;;;;;4.18;2.33;;;17.10;51.80;;;;;;20729356;28;20510;-49
2021/04/20 21:44:55;;;;;;;;;;;17.00;55.50;;;;;;20748772;28;20018;-50
2021/04/20 21:55:12;;;;;;;5.80;3.40;;;16.70;56.90;;;;;;20747227;28;20384;-48
2021/04/20 22:05:15;;;;;;;4.63;2.88;;;16.70;58.00;;;;;;20746602;28;20156;-49
2021/04/20 22:15:27;;;;;;;4.32;3.00;;;16.50;58.50;;;;;;20746653;28;20484;-49
2021/04/20 22:25:32;;;;;;;4.13;3.20;;;16.50;58.60;;;;;;20746294;28;20033;-50
2021/04/20 22:35:36;;;;;;;5.78;2.92;;;16.40;59.90;;;;;;20745627;28;20049;-48
2021/04/20 22:45:38;;;;;;;4.67;3.33;;;16.30;60.10;;;;;;20745294;28;20490;-49
2021/04/20 22:55:43;;;;;;;3.63;3.00;;;16.20;60.60;;;;;;20744766;28;20061;-49
2021/04/20 23:06:06;;;;;;;5.18;2.70;;;16.10;61.30;;;;;;20754519;28;20478;-49
2021/04/20 23:16:09;;;;;;;3.70;3.03;;;16.00;61.50;;;;;;20757731;28;20072;-48
2021/04/20 23:26:28;;;;;;;4.88;2.55;;;15.90;61.90;;;;;;20757983;28;20065;-50
2021/04/20 23:36:31;;;;;;;4.38;2.92;;;15.90;61.60;;;;;;20757065;28;20061;-49
2021/04/20 23:46:33;;;;;;;2.80;2.20;;;15.80;62.20;;;;;;20756370;28;20025;-49
2021/04/20 23:56:37;;;;;;;3.17;2.05;;;15.70;61.90;;;;;;20755670;28;20050;-47
